createdAt,value
2018-10-19T00:00:45.062Z,11.10
2018-10-19T00:03:48.026Z,5.70
2018-10-19T00:06:50.996Z,11.43
2018-10-19T00:09:53.999Z,9.47
2018-10-19T00:16:20.851Z,10.30
2018-10-19T00:19:23.791Z,16.03
2018-10-19T00:22:26.761Z,10.00
2018-10-19T00:25:29.701Z,9.40
2018-10-19T00:28:32.657Z,10.10
2018-10-19T00:31:35.668Z,7.97
2018-10-19T00:34:38.598Z,11.67
2018-10-19T00:37:41.523Z,9.93
2018-10-19T00:40:44.476Z,23.33
2018-10-19T00:43:47.461Z,8.63
2018-10-19T00:46:50.444Z,10.80
2018-10-19T00:49:53.441Z,7.63
2018-10-19T00:52:56.713Z,12.20
2018-10-19T00:55:59.704Z,13.53
2018-10-19T00:59:02.734Z,11.60
2018-10-19T01:02:05.694Z,10.43
2018-10-19T01:05:08.673Z,12.20
2018-10-19T01:08:11.945Z,9.13
2018-10-19T01:11:15.041Z,19.60
2018-10-19T01:14:17.955Z,11.30
2018-10-19T01:17:20.945Z,13.97
2018-10-19T01:20:23.898Z,12.20
2018-10-19T01:23:26.862Z,17.00
2018-10-19T01:26:29.814Z,12.90
2018-10-19T01:29:32.769Z,12.50
2018-10-19T01:32:36.110Z,8.43
2018-10-19T01:35:39.109Z,11.97
2018-10-19T01:38:42.135Z,15.03
2018-10-19T01:41:45.132Z,14.07
2018-10-19T01:44:48.102Z,11.73
2018-10-19T01:47:51.051Z,14.80
2018-10-19T01:50:54.138Z,13.47
2018-10-19T01:53:57.085Z,14.80
2018-10-19T01:57:00.028Z,14.37
2018-10-19T02:00:03.334Z,9.90
2018-10-19T02:03:06.389Z,15.63
2018-10-19T02:06:09.373Z,19.20
2018-10-19T02:09:12.426Z,14.10
2018-10-19T02:12:15.363Z,16.13
2018-10-19T02:15:18.377Z,12.07
2018-10-19T02:18:21.243Z,12.73
2018-10-19T02:21:24.202Z,17.70
2018-10-19T02:24:27.199Z,13.33
2018-10-19T02:27:30.234Z,10.23
2018-10-19T02:30:33.165Z,15.17
2018-10-19T02:33:36.126Z,19.17
2018-10-19T02:36:39.053Z,15.13
2018-10-19T02:39:41.974Z,15.53
2018-10-19T02:42:44.925Z,16.43
2018-10-19T02:45:47.861Z,16.80
2018-10-19T02:48:50.804Z,12.53
2018-10-19T02:51:53.735Z,15.73
2018-10-19T02:54:56.713Z,30.27
2018-10-19T02:57:59.705Z,15.83
2018-10-19T03:01:02.665Z,16.00
2018-10-19T03:04:05.690Z,11.87
2018-10-19T03:07:08.661Z,20.13
2018-10-19T03:10:11.614Z,18.97
2018-10-19T03:13:14.568Z,17.80
2018-10-19T03:16:17.525Z,19.90
2018-10-19T03:19:20.529Z,17.27
2018-10-19T03:22:23.465Z,12.77
2018-10-19T03:25:26.493Z,15.70
2018-10-19T03:28:29.445Z,17.77
2018-10-19T03:31:32.457Z,32.43
2018-10-19T03:34:35.410Z,22.30
2018-10-19T03:37:38.349Z,26.17
2018-10-19T03:40:41.285Z,13.60
2018-10-19T03:43:44.222Z,18.07
2018-10-19T03:46:47.182Z,14.70
2018-10-19T03:49:50.136Z,13.67
2018-10-19T03:52:53.065Z,19.17
2018-10-19T03:55:56.016Z,15.80
2018-10-19T03:58:58.985Z,12.20
2018-10-19T04:02:01.898Z,24.27
2018-10-19T04:05:05.012Z,14.17
2018-10-19T04:08:07.966Z,26.50
2018-10-19T04:11:10.951Z,12.87
2018-10-19T04:14:13.908Z,18.50
2018-10-19T04:17:16.960Z,9.50
2018-10-19T04:20:19.890Z,28.27
2018-10-19T04:23:22.833Z,12.10
2018-10-19T04:26:25.772Z,15.10
2018-10-19T04:29:28.745Z,20.80
2018-10-19T04:32:31.694Z,26.80
2018-10-19T04:35:34.657Z,18.33
2018-10-19T04:38:37.621Z,15.80
2018-10-19T04:41:40.646Z,20.40
2018-10-19T04:44:43.534Z,17.00
2018-10-19T04:47:46.576Z,16.73
2018-10-19T04:50:49.543Z,13.40
2018-10-19T04:53:52.540Z,12.03
2018-10-19T04:56:55.539Z,18.43
2018-10-19T04:59:58.479Z,15.20
2018-10-19T05:03:01.496Z,14.67
2018-10-19T05:06:04.977Z,15.40
2018-10-19T05:09:09.944Z,14.70
2018-10-19T05:12:12.913Z,24.00
2018-10-19T05:15:15.896Z,16.47
2018-10-19T05:18:18.888Z,23.10
2018-10-19T05:21:21.861Z,15.10
2018-10-19T05:24:25.097Z,17.27
2018-10-19T05:27:28.024Z,16.10
2018-10-19T05:30:30.979Z,14.50
2018-10-19T05:33:34.065Z,18.13
2018-10-19T05:36:37.081Z,23.03
2018-10-19T05:39:40.054Z,23.83
2018-10-19T05:42:43.033Z,17.03
2018-10-19T05:45:45.963Z,22.13
2018-10-19T05:48:48.959Z,19.80
2018-10-19T05:51:51.965Z,18.30
2018-10-19T05:54:54.942Z,22.33
2018-10-19T05:57:57.918Z,16.17
2018-10-19T06:01:00.903Z,18.27
2018-10-19T06:04:04.160Z,16.40
2018-10-19T06:07:07.179Z,20.07
2018-10-19T06:10:10.227Z,20.33
2018-10-19T06:13:13.154Z,25.30
2018-10-19T06:16:16.150Z,21.03
2018-10-19T06:19:20.059Z,17.00
2018-10-19T06:22:23.017Z,19.83
2018-10-19T06:25:25.961Z,21.47
2018-10-19T06:28:28.954Z,18.93
2018-10-19T06:31:31.891Z,17.20
2018-10-19T06:34:34.894Z,20.43
2018-10-19T06:37:37.857Z,15.40
2018-10-19T06:40:40.866Z,22.63
2018-10-19T06:43:43.749Z,23.30
2018-10-19T06:46:46.806Z,19.83
2018-10-19T06:49:49.727Z,21.30
2018-10-19T06:52:52.896Z,20.70
2018-10-19T06:55:55.909Z,22.37
2018-10-19T06:58:58.877Z,21.60
2018-10-19T07:02:01.849Z,24.47
2018-10-19T07:05:05.308Z,21.47
2018-10-19T07:08:08.407Z,25.40
2018-10-19T07:11:11.260Z,20.47
2018-10-19T07:14:14.218Z,21.53
2018-10-19T07:17:17.238Z,20.70
2018-10-19T07:20:20.141Z,22.83
2018-10-19T07:23:23.106Z,25.20
2018-10-19T07:26:26.064Z,21.97
2018-10-19T07:29:29.021Z,26.27
2018-10-19T07:32:31.941Z,23.87
2018-10-19T07:35:34.885Z,19.80
2018-10-19T07:38:37.828Z,27.93
2018-10-19T07:41:40.852Z,23.07
2018-10-19T07:44:43.750Z,19.83
2018-10-19T07:47:46.726Z,23.97
2018-10-19T07:50:49.599Z,23.20
2018-10-19T07:53:52.549Z,22.30
2018-10-19T07:56:55.513Z,20.50
2018-10-19T07:59:58.439Z,26.13
2018-10-19T08:03:01.394Z,23.27
2018-10-19T08:06:04.335Z,23.53
2018-10-19T08:09:09.397Z,18.10
2018-10-19T08:12:12.318Z,9.50
2018-10-19T08:15:15.271Z,17.60
2018-10-19T08:18:18.244Z,23.57
2018-10-19T08:21:21.149Z,19.37
2018-10-19T08:24:24.074Z,21.60
2018-10-19T08:27:27.005Z,16.00
2018-10-19T08:30:29.907Z,21.17
2018-10-19T08:33:32.821Z,22.47
2018-10-19T08:36:35.730Z,26.67
2018-10-19T08:39:38.660Z,23.90
2018-10-19T08:42:41.582Z,21.83
2018-10-19T08:45:44.630Z,24.07
2018-10-19T08:48:47.561Z,19.83
2018-10-19T08:51:50.544Z,21.83
2018-10-19T08:54:53.551Z,20.73
2018-10-19T08:57:56.522Z,26.47
2018-10-19T09:00:59.442Z,24.60
2018-10-19T09:04:02.439Z,25.27
2018-10-19T09:07:05.403Z,24.70
2018-10-19T09:10:08.720Z,21.47
2018-10-19T09:13:11.740Z,20.60
2018-10-19T09:16:14.701Z,21.77
2018-10-19T09:19:17.707Z,31.10
2018-10-19T09:22:20.956Z,30.57
2018-10-19T09:25:23.901Z,20.37
2018-10-19T09:28:26.866Z,20.43
2018-10-19T09:31:29.813Z,20.83
2018-10-19T09:34:32.905Z,19.50
2018-10-19T09:37:35.909Z,28.30
2018-10-19T09:40:39.326Z,23.50
2018-10-19T09:43:42.228Z,20.43
2018-10-19T09:46:45.176Z,20.83
2018-10-19T09:49:48.168Z,22.30
2018-10-19T09:52:51.110Z,20.40
2018-10-19T09:55:54.092Z,26.83
2018-10-19T09:58:57.047Z,22.70
2018-10-19T10:01:59.965Z,28.17
2018-10-19T10:05:02.960Z,23.73
2018-10-19T10:08:05.938Z,24.30
2018-10-19T10:11:08.844Z,25.70
2018-10-19T10:14:11.873Z,23.20
2018-10-19T10:17:14.869Z,23.73
2018-10-19T10:20:17.782Z,22.93
2018-10-19T10:23:20.754Z,23.40
2018-10-19T10:26:23.701Z,17.37
2018-10-19T10:29:26.675Z,33.03
2018-10-19T10:32:29.642Z,35.80
2018-10-19T10:35:32.485Z,23.90
2018-10-19T10:38:35.416Z,24.00
2018-10-19T10:41:38.409Z,24.27
2018-10-19T10:44:41.369Z,21.40
2018-10-19T10:47:44.343Z,23.47
2018-10-19T10:50:47.262Z,29.20
2018-10-19T10:53:50.165Z,23.33
2018-10-19T10:56:53.109Z,19.77
2018-10-19T10:59:56.053Z,27.37
2018-10-19T11:02:58.957Z,25.37
2018-10-19T11:06:02.229Z,23.47
2018-10-19T11:09:08.218Z,31.03
2018-10-19T11:12:11.134Z,21.73
2018-10-19T11:15:14.085Z,23.17
2018-10-19T11:18:17.418Z,24.93
2018-10-19T11:21:20.766Z,22.33
2018-10-19T11:24:23.975Z,21.13
2018-10-19T11:27:27.344Z,20.30
2018-10-19T11:30:30.518Z,22.20
2018-10-19T11:33:34.568Z,20.47
2018-10-19T11:36:37.742Z,22.70
2018-10-19T11:39:58.607Z,24.03
2018-10-19T11:43:02.309Z,23.97
2018-10-19T11:46:06.134Z,20.60
2018-10-19T11:49:09.246Z,20.47
2018-10-19T11:52:12.214Z,22.00
2018-10-19T11:55:15.216Z,22.67
2018-10-19T11:58:18.160Z,21.63
2018-10-19T12:01:21.105Z,21.47
2018-10-19T12:04:24.050Z,18.80
2018-10-19T12:07:26.972Z,28.20
2018-10-19T12:10:29.943Z,17.40
2018-10-19T12:13:32.830Z,22.27
2018-10-19T12:16:35.781Z,18.03
2018-10-19T12:19:38.685Z,24.17
2018-10-19T12:22:41.617Z,21.63
2018-10-19T12:25:44.595Z,23.93
2018-10-19T12:28:47.525Z,21.00
2018-10-19T12:31:50.475Z,19.87
2018-10-19T12:34:53.574Z,21.20
2018-10-19T12:37:56.495Z,18.57
2018-10-19T12:40:59.405Z,23.40
2018-10-19T12:44:02.333Z,34.10
2018-10-19T12:47:22.548Z,21.73
2018-10-19T12:50:25.429Z,19.60
2018-10-19T12:53:28.404Z,21.10
2018-10-19T12:56:34.349Z,20.13
2018-10-19T12:59:37.434Z,24.23
2018-10-19T13:02:40.334Z,19.20
2018-10-19T13:05:43.260Z,24.23
2018-10-19T13:08:46.201Z,23.07
2018-10-19T13:11:49.138Z,18.13
2018-10-19T13:14:52.104Z,24.63
2018-10-19T13:17:55.024Z,23.13
2018-10-19T13:20:58.291Z,23.97
2018-10-19T13:24:01.246Z,19.20
2018-10-19T13:27:04.305Z,21.10
2018-10-19T13:30:07.332Z,18.90
2018-10-19T13:33:10.474Z,17.27
2018-10-19T13:36:13.454Z,21.60
2018-10-19T13:39:16.412Z,23.70
2018-10-19T13:42:19.272Z,20.60
2018-10-19T13:45:22.212Z,20.40
2018-10-19T13:48:25.151Z,22.17
2018-10-19T13:51:28.122Z,26.47
2018-10-19T13:54:31.201Z,24.27
2018-10-19T13:57:34.095Z,16.53
2018-10-19T14:00:37.021Z,26.57
2018-10-19T14:03:39.955Z,20.93
2018-10-19T14:06:42.864Z,20.03
2018-10-19T14:09:45.782Z,27.37
2018-10-19T14:12:48.757Z,23.97
2018-10-19T14:15:51.740Z,23.27
2018-10-19T14:18:54.654Z,21.90
2018-10-19T14:21:57.606Z,22.10
2018-10-19T14:25:00.665Z,17.90
2018-10-19T14:28:03.612Z,21.90
2018-10-19T14:31:06.591Z,25.77
2018-10-19T14:34:09.528Z,18.20
2018-10-19T14:37:12.449Z,24.60
2018-10-19T14:40:17.793Z,25.90
2018-10-19T14:43:20.759Z,20.07
2018-10-19T14:46:23.709Z,22.27
2018-10-19T14:49:26.644Z,20.87
2018-10-19T14:52:29.621Z,21.47
2018-10-19T14:55:32.540Z,23.47
2018-10-19T14:58:35.437Z,20.07
2018-10-19T15:01:38.361Z,34.13
2018-10-19T15:04:41.262Z,28.80
2018-10-19T15:07:44.191Z,44.20
2018-10-19T15:10:47.416Z,27.33
2018-10-19T15:13:50.089Z,33.77
2018-10-19T15:16:53.042Z,24.20
2018-10-19T15:19:55.974Z,27.17
2018-10-19T15:22:58.890Z,30.60
2018-10-19T15:26:02.554Z,29.70
2018-10-19T15:29:05.844Z,22.83
2018-10-19T15:32:09.253Z,29.53
2018-10-19T15:35:12.843Z,26.00
2018-10-19T15:38:16.593Z,25.10
2018-10-19T15:41:19.784Z,27.13
2018-10-19T15:44:22.985Z,27.53
2018-10-19T15:47:28.334Z,22.47
2018-10-19T15:50:31.466Z,17.60
2018-10-19T15:53:34.777Z,16.80
2018-10-19T15:56:38.072Z,16.60
2018-10-19T15:59:41.078Z,21.97
2018-10-19T16:02:45.227Z,22.47
2018-10-19T16:05:48.500Z,16.23
2018-10-19T16:08:51.934Z,17.83
2018-10-19T16:11:55.474Z,15.03
2018-10-19T16:14:58.776Z,16.20
2018-10-19T16:18:01.710Z,17.13
2018-10-19T16:21:05.038Z,17.17
2018-10-19T16:24:07.979Z,24.03
2018-10-19T16:27:11.042Z,26.27
2018-10-19T16:30:14.055Z,18.93
2018-10-19T16:33:16.986Z,21.17
2018-10-19T16:36:19.987Z,16.83
2018-10-19T16:39:22.945Z,17.83
2018-10-19T16:42:25.889Z,17.17
2018-10-19T16:45:28.822Z,13.67
2018-10-19T16:48:31.835Z,30.20
2018-10-19T16:51:34.793Z,15.53
2018-10-19T16:54:37.693Z,17.73
2018-10-19T16:57:40.627Z,21.47
2018-10-19T17:00:43.587Z,20.50
2018-10-19T17:03:46.497Z,18.63
2018-10-19T17:06:49.432Z,20.43
2018-10-19T17:09:52.436Z,15.57
2018-10-19T17:12:55.474Z,17.37
2018-10-19T17:15:58.390Z,15.47
2018-10-19T17:19:01.895Z,14.90
2018-10-19T17:22:05.359Z,16.40
2018-10-19T17:25:10.184Z,16.03
2018-10-19T17:28:13.073Z,16.13
2018-10-19T17:31:16.133Z,21.60
2018-10-19T17:34:18.974Z,15.00
2018-10-19T17:37:21.917Z,26.97
2018-10-19T17:40:24.859Z,10.43
2018-10-19T17:43:27.883Z,17.13
2018-10-19T17:46:30.858Z,16.33
2018-10-19T17:49:33.836Z,16.53
2018-10-19T17:52:37.067Z,16.07
2018-10-19T17:55:40.012Z,17.83
2018-10-19T17:58:43.010Z,20.93
2018-10-19T18:01:46.006Z,17.87
2018-10-19T18:04:49.048Z,15.23
2018-10-19T18:07:51.950Z,16.00
2018-10-19T18:10:54.950Z,22.97
2018-10-19T18:13:57.954Z,27.00
2018-10-19T18:17:00.978Z,24.20
2018-10-19T18:20:04.003Z,25.40
2018-10-19T18:23:07.102Z,23.73
2018-10-19T18:26:10.007Z,32.20
2018-10-19T18:29:12.976Z,18.43
2018-10-19T18:32:16.012Z,30.73
2018-10-19T18:35:18.977Z,35.33
2018-10-19T18:38:21.880Z,43.70
2018-10-19T18:41:24.833Z,42.33
2018-10-19T18:44:27.766Z,34.10
2018-10-19T18:47:30.723Z,62.67
2018-10-19T18:50:33.679Z,43.47
2018-10-19T18:53:36.779Z,28.27
2018-10-19T18:56:40.063Z,42.77
2018-10-19T18:59:43.080Z,29.47
2018-10-19T19:02:46.189Z,29.53
2018-10-19T19:05:49.521Z,30.20
2018-10-19T19:08:53.115Z,13.40
2018-10-19T19:11:56.473Z,17.10
2018-10-19T19:14:59.574Z,16.63
2018-10-19T19:18:02.542Z,13.60
2018-10-19T19:21:05.942Z,9.83
2018-10-19T19:24:15.037Z,24.00
2018-10-19T19:27:18.378Z,15.87
2018-10-19T19:30:21.596Z,19.17
2018-10-19T19:33:30.331Z,16.73
2018-10-19T19:36:33.693Z,12.80
2018-10-19T19:39:37.166Z,19.50
2018-10-19T19:42:43.014Z,13.30
2018-10-19T19:45:46.240Z,10.80
2018-10-19T19:48:55.755Z,10.40
2018-10-19T19:51:59.119Z,15.97
2018-10-19T19:55:02.708Z,13.43
2018-10-19T19:58:06.392Z,10.53
2018-10-19T20:01:09.972Z,16.57
2018-10-19T20:04:16.992Z,16.43
2018-10-19T20:07:20.397Z,31.30
2018-10-19T20:10:24.012Z,11.23
2018-10-19T20:13:27.402Z,9.43
2018-10-19T20:16:30.729Z,11.10
2018-10-19T20:19:34.382Z,9.83
2018-10-19T20:22:37.953Z,20.43
2018-10-19T20:25:41.309Z,9.47
2018-10-19T20:28:44.927Z,15.33
2018-10-19T20:31:47.807Z,15.10
2018-10-19T20:34:51.187Z,13.73
2018-10-19T20:37:55.187Z,12.13
2018-10-19T20:40:59.310Z,8.47
2018-10-19T20:44:02.328Z,11.37
2018-10-19T20:47:05.917Z,8.83
2018-10-19T20:50:08.975Z,17.77
2018-10-19T20:53:11.981Z,14.97
2018-10-19T20:56:14.944Z,10.57
2018-10-19T20:59:17.935Z,14.90
2018-10-19T21:02:21.000Z,11.57
2018-10-19T21:05:23.960Z,8.53
2018-10-19T21:08:27.002Z,8.30
2018-10-19T21:11:30.007Z,16.60
2018-10-19T21:14:33.018Z,17.23
2018-10-19T21:17:36.538Z,7.23
2018-10-19T21:20:39.856Z,9.30
2018-10-19T21:23:43.055Z,9.03
2018-10-19T21:26:46.250Z,13.33
2018-10-19T21:29:49.187Z,8.50
2018-10-19T21:32:52.134Z,7.33
2018-10-19T21:35:55.119Z,10.00
2018-10-19T21:38:58.098Z,11.73
2018-10-19T21:42:01.051Z,12.07
2018-10-19T21:45:04.350Z,9.40
2018-10-19T21:48:07.315Z,9.33
2018-10-19T21:51:17.016Z,12.83
2018-10-19T21:54:19.989Z,16.63
2018-10-19T21:57:22.978Z,26.33
2018-10-19T22:00:26.053Z,32.80
2018-10-19T22:03:29.031Z,26.90
2018-10-19T22:06:32.038Z,28.20
2018-10-19T22:09:34.959Z,9.30
2018-10-19T22:12:37.878Z,14.83
2018-10-19T22:15:40.872Z,12.50
2018-10-19T22:18:43.857Z,11.97
2018-10-19T22:21:46.824Z,9.50
2018-10-19T22:24:49.843Z,13.23
2018-10-19T22:27:52.798Z,7.30
2018-10-19T22:30:55.787Z,9.30
2018-10-19T22:33:58.711Z,17.10
2018-10-19T22:37:01.648Z,13.47
2018-10-19T22:40:05.172Z,11.37
2018-10-19T22:43:08.239Z,15.77
2018-10-19T22:46:11.153Z,9.43
2018-10-19T22:49:14.162Z,10.80
2018-10-19T22:52:17.042Z,11.77
2018-10-19T22:55:20.002Z,11.93
2018-10-19T22:58:23.098Z,6.60
2018-10-19T23:01:26.125Z,21.00
2018-10-19T23:04:29.081Z,6.73
2018-10-19T23:07:32.061Z,6.97
2018-10-19T23:10:35.095Z,15.60
2018-10-19T23:13:38.050Z,11.20
2018-10-19T23:16:41.055Z,8.33
2018-10-19T23:19:44.003Z,8.83
2018-10-19T23:22:47.031Z,10.03
2018-10-19T23:25:49.966Z,7.60
2018-10-19T23:28:52.944Z,9.27
2018-10-19T23:31:55.956Z,12.37
2018-10-19T23:34:58.976Z,7.03
2018-10-19T23:38:02.102Z,7.37
2018-10-19T23:41:05.160Z,11.87
2018-10-19T23:44:08.249Z,8.63
2018-10-19T23:47:11.251Z,9.00
2018-10-19T23:50:14.157Z,14.50
2018-10-19T23:53:17.186Z,8.50
2018-10-19T23:56:20.146Z,7.77
2018-10-19T23:59:23.057Z,9.50
